Time;durP1;ratioP1;P1;durP2;ratioP2;P2;SDS_P1;SDS_P2;PMS_P1;PMS_P2;Temp;Humidity;BMP_temperature;BMP_pressure;BME280_temperature;BME280_humidity;BME280_pressure;Samples;Min_cycle;Max_cycle;Signal;HPM_P1;HPM_P2
2023/08/09 00:00:35;;;;;;;3.33;1.27;;;;;;;;;;4898538;29;20055;-70
2023/08/09 00:03:01;;;;;;;3.85;1.48;;;;;;;;;;4880538;29;20070;-68
2023/08/09 00:05:27;;;;;;;5.15;1.30;;;;;;;;;;4898381;29;20041;-67
2023/08/09 00:07:53;;;;;;;5.60;1.42;;;;;;;;;;4880979;29;20052;-68
2023/08/09 00:10:19;;;;;;;2.90;1.48;;;;;;;;;;4881334;29;20056;-67
2023/08/09 00:12:45;;;;;;;8.20;2.28;;;;;;;;;;4897958;29;20044;-67
2023/08/09 00:15:11;;;;;;;5.03;1.48;;;;;;;;;;4881411;29;20058;-68
2023/08/09 00:17:37;;;;;;;1.83;1.30;;;;;;;;;;4880728;29;20044;-67
2023/08/09 00:20:04;;;;;;;2.72;1.30;;;15.20;99.90;;;;;;4880522;29;20390;-67
2023/08/09 00:22:30;;;;;;;3.85;1.92;;;15.20;99.90;;;;;;4880726;29;20048;-68
2023/08/09 00:24:56;;;;;;;5.88;1.20;;;14.90;99.90;;;;;;4865701;29;20104;-67
2023/08/09 00:27:23;;;;;;;4.05;1.48;;;15.00;99.90;;;;;;4897729;29;20052;-67
2023/08/09 00:29:49;;;;;;;2.60;1.30;;;14.90;99.90;;;;;;4880949;29;20097;-67
2023/08/09 00:32:14;;;;;;;6.18;1.48;;;14.90;99.90;;;;;;4880661;29;20041;-67
2023/08/09 00:34:40;;;;;;;5.35;1.50;;;14.90;99.90;;;;;;4881193;29;20075;-67
2023/08/09 00:37:06;;;;;;;3.47;1.40;;;;;;;;;;4880924;29;20485;-68
2023/08/09 00:39:32;;;;;;;3.63;1.38;;;14.80;99.90;;;;;;4881004;29;20056;-68
2023/08/09 00:41:57;;;;;;;2.03;1.20;;;14.90;99.90;;;;;;4897460;29;20044;-67
2023/08/09 00:44:23;;;;;;;2.65;1.30;;;14.80;99.90;;;;;;4897501;29;20464;-67
2023/08/09 00:46:49;;;;;;;2.70;1.30;;;14.70;99.90;;;;;;4897683;29;20036;-67
2023/08/09 00:49:16;;;;;;;5.20;1.30;;;14.90;99.90;;;;;;4880333;29;20075;-67
2023/08/09 00:51:43;;;;;;;3.75;1.45;;;14.70;99.90;;;;;;4880342;29;20103;-67
2023/08/09 00:54:09;;;;;;;3.35;1.30;;;;;;;;;;4897586;29;20040;-67
2023/08/09 00:56:35;;;;;;;2.47;1.60;;;14.50;99.90;;;;;;4880274;29;20055;-67
2023/08/09 00:59:02;;;;;;;6.53;1.85;;;14.80;99.90;;;;;;4897222;29;20124;-67
2023/08/09 01:01:28;;;;;;;4.78;1.75;;;14.70;99.90;;;;;;4880440;29;20040;-67
2023/08/09 01:03:54;;;;;;;3.58;1.55;;;14.60;99.90;;;;;;4880634;29;20041;-67
2023/08/09 01:06:28;;;;;;;2.53;1.60;;;14.70;99.90;;;;;;4880287;29;20040;-67
2023/08/09 01:09:06;;;;;;;2.58;1.20;;;14.40;99.90;;;;;;4897262;29;20044;-67
2023/08/09 01:11:54;;;;;;;7.28;2.00;;;14.50;99.90;;;;;;4880574;29;20060;-67
2023/08/09 01:14:25;;;;;;;2.60;1.30;;;14.60;99.90;;;;;;4880541;29;20045;-67
2023/08/09 01:16:53;;;;;;;3.70;1.50;;;14.50;99.90;;;;;;4879806;29;20206;-67
2023/08/09 01:19:31;;;;;;;4.20;1.52;;;14.60;99.90;;;;;;4896374;29;20386;-67
2023/08/09 01:21:59;;;;;;;2.78;1.40;;;14.70;99.90;;;;;;4896536;29;20052;-66
2023/08/09 01:24:25;;;;;;;1.58;1.48;;;14.40;99.90;;;;;;4880136;29;20044;-66
2023/08/09 01:26:51;;;;;;;2.63;1.77;;;14.20;99.90;;;;;;4897076;29;20053;-67
2023/08/09 01:29:17;;;;;;;3.13;1.33;;;14.20;99.90;;;;;;4880313;29;20052;-67
2023/08/09 01:31:43;;;;;;;5.13;1.48;;;14.20;99.90;;;;;;4896554;29;20123;-67
2023/08/09 01:34:09;;;;;;;3.15;1.63;;;;;;;;;;4896532;29;20041;-67
2023/08/09 01:36:40;;;;;;;3.92;1.30;;;14.00;99.90;;;;;;4878968;29;20047;-67
2023/08/09 01:39:14;;;;;;;3.47;1.20;;;13.90;99.90;;;;;;4880023;29;20389;-67
2023/08/09 01:41:41;;;;;;;5.95;1.45;;;14.20;99.90;;;;;;4879543;29;20043;-66
2023/08/09 01:44:09;;;;;;;2.83;1.83;;;14.00;99.90;;;;;;4880136;29;20058;-67
2023/08/09 01:46:35;;;;;;;2.22;1.33;;;14.10;99.90;;;;;;4896456;29;20048;-66
2023/08/09 01:49:08;;;;;;;7.07;1.83;;;14.10;99.90;;;;;;4879821;29;20051;-66
2023/08/09 01:51:34;;;;;;;;;;;14.10;99.90;;;;;;4880291;29;20100;-65
2023/08/09 01:53:59;;;;;;;4.90;1.63;;;13.90;99.90;;;;;;4879987;29;20336;-67
2023/08/09 01:56:25;;;;;;;5.32;1.52;;;;;;;;;;4879782;29;20064;-67
2023/08/09 01:58:51;;;;;;;2.70;1.80;;;;;;;;;;4896736;29;20119;-66
2023/08/09 02:01:17;;;;;;;2.85;1.80;;;13.90;99.90;;;;;;4896202;29;20083;-66
2023/08/09 02:03:43;;;;;;;2.58;1.48;;;13.90;99.90;;;;;;4879645;29;20080;-66
2023/08/09 02:06:09;;;;;;;5.40;1.40;;;13.80;99.90;;;;;;4879579;29;20083;-66
2023/08/09 02:08:34;;;;;;;3.58;1.58;;;13.80;99.90;;;;;;4896463;29;20064;-66
2023/08/09 02:11:00;;;;;;;4.28;1.52;;;;;;;;;;4896391;29;20472;-66
2023/08/09 02:13:26;;;;;;;2.65;1.60;;;13.90;99.90;;;;;;4896395;29;20037;-66
2023/08/09 02:15:51;;;;;;;4.38;1.60;;;13.70;99.90;;;;;;4879399;29;20689;-66
2023/08/09 02:18:17;;;;;;;4.47;1.48;;;13.80;99.90;;;;;;4896507;29;20041;-67
2023/08/09 02:20:43;;;;;;;6.53;1.95;;;13.90;99.90;;;;;;4879782;29;20131;-67
2023/08/09 02:23:09;;;;;;;5.90;1.65;;;;;;;;;;4896063;29;20048;-67
2023/08/09 02:25:35;;;;;;;4.20;2.22;;;;;;;;;;4879438;29;20544;-66
2023/08/09 02:28:01;;;;;;;3.45;1.60;;;;;;;;;;4879369;29;20095;-67
2023/08/09 02:30:26;;;;;;;3.92;1.50;;;13.90;99.90;;;;;;4896248;29;20529;-66
2023/08/09 02:32:52;;;;;;;5.53;1.98;;;13.70;99.90;;;;;;4896118;29;20049;-67
2023/08/09 02:35:18;;;;;;;5.85;1.52;;;13.90;99.90;;;;;;4879375;29;20048;-67
2023/08/09 02:37:44;;;;;;;3.60;1.60;;;;;;;;;;4879450;29;20047;-66
2023/08/09 02:40:10;;;;;;;2.72;1.30;;;13.90;99.90;;;;;;4879650;29;20045;-67
2023/08/09 02:42:37;;;;;;;5.13;1.70;;;13.70;99.90;;;;;;4880869;29;20123;-66
2023/08/09 02:45:03;;;;;;;3.33;1.40;;;13.70;99.90;;;;;;4899748;29;20120;-66
2023/08/09 02:47:29;;;;;;;2.75;1.40;;;13.70;99.90;;;;;;4899624;29;20655;-66
2023/08/09 02:49:55;;;;;;;3.88;1.50;;;13.70;99.90;;;;;;4899818;29;20076;-66
2023/08/09 02:52:20;;;;;;;2.53;1.80;;;13.70;99.90;;;;;;4881959;29;20461;-66
2023/08/09 02:54:47;;;;;;;4.78;1.75;;;;;;;;;;4882983;29;20036;-66
2023/08/09 02:57:13;;;;;;;3.53;1.65;;;13.70;99.90;;;;;;4899551;29;20051;-66
2023/08/09 02:59:39;;;;;;;2.92;1.70;;;13.50;99.90;;;;;;4899471;29;20493;-66
2023/08/09 03:02:06;;;;;;;4.45;1.70;;;13.40;99.90;;;;;;4882401;29;20048;-66
2023/08/09 03:04:33;;;;;;;1.67;1.30;;;;;;;;;;4899308;29;20604;-66
2023/08/09 03:06:59;;;;;;;6.97;2.00;;;;;;;;;;4882514;29;20135;-66
2023/08/09 03:09:25;;;;;;;2.13;1.60;;;;;;;;;;4882541;29;20136;-66
2023/08/09 03:11:51;;;;;;;5.47;1.65;;;;;;;;;;4899231;29;20036;-66
2023/08/09 03:14:17;;;;;;;4.40;2.10;;;;;;;;;;4899339;29;20088;-66
2023/08/09 03:16:42;;;;;;;3.03;1.42;;;13.40;99.90;;;;;;4882492;29;20675;-66
2023/08/09 03:19:09;;;;;;;1.80;1.45;;;13.40;99.90;;;;;;4882627;29;20048;-66
2023/08/09 03:21:35;;;;;;;5.47;1.80;;;13.60;99.90;;;;;;4899157;29;20088;-66
2023/08/09 03:24:01;;;;;;;2.97;1.50;;;13.40;99.90;;;;;;4899261;29;20033;-66
2023/08/09 03:26:26;;;;;;;1.88;1.40;;;13.30;99.90;;;;;;4899164;29;20472;-66
2023/08/09 03:28:53;;;;;;;2.55;1.63;;;13.20;99.90;;;;;;4899015;29;20048;-66
2023/08/09 03:31:18;;;;;;;2.88;1.90;;;13.30;99.90;;;;;;4898728;29;20413;-66
2023/08/09 03:33:44;;;;;;;3.97;2.28;;;13.30;99.90;;;;;;4898835;29;20047;-66
2023/08/09 03:36:12;;;;;;;3.40;1.95;;;13.30;99.90;;;;;;4882192;29;20044;-66
2023/08/09 03:38:38;;;;;;;4.53;2.15;;;;;;;;;;4899066;29;20047;-66
2023/08/09 03:41:04;;;;;;;4.55;1.85;;;;;;;;;;4882301;29;20127;-66
2023/08/09 03:43:30;;;;;;;3.05;1.88;;;;;;;;;;4898443;29;20124;-66
2023/08/09 03:45:56;;;;;;;3.90;1.58;;;13.40;99.90;;;;;;4882207;29;20049;-66
2023/08/09 03:48:22;;;;;;;2.72;1.60;;;13.20;99.90;;;;;;4881801;29;20104;-66
2023/08/09 03:50:47;;;;;;;3.33;1.90;;;13.50;99.90;;;;;;4881948;29;20067;-67
2023/08/09 03:53:13;;;;;;;4.80;1.75;;;13.40;99.90;;;;;;4880948;29;20051;-67
2023/08/09 03:55:39;;;;;;;10.88;1.90;;;;;;;;;;4881756;29;20048;-67
2023/08/09 03:58:05;;;;;;;3.78;1.88;;;;;;;;;;4881888;29;20434;-67
2023/08/09 04:00:32;;;;;;;5.82;1.65;;;;;;;;;;4898410;29;20107;-67
2023/08/09 04:02:57;;;;;;;3.05;1.70;;;13.30;99.90;;;;;;4898354;29;20053;-66
2023/08/09 04:05:23;;;;;;;3.03;1.85;;;;;;;;;;4898619;29;20045;-67
2023/08/09 04:07:49;;;;;;;2.83;1.65;;;;;;;;;;4898359;29;20040;-67
2023/08/09 04:10:16;;;;;;;5.60;1.52;;;;;;;;;;4898311;29;20192;-67
2023/08/09 04:12:42;;;;;;;3.30;1.95;;;13.20;99.90;;;;;;4898104;29;20223;-67
2023/08/09 04:15:08;;;;;;;9.25;1.95;;;13.30;99.90;;;;;;4898401;29;20033;-67
2023/08/09 04:17:34;;;;;;;3.90;1.95;;;;;;;;;;4898210;29;20045;-68
2023/08/09 04:20:00;;;;;;;5.95;1.70;;;13.40;99.90;;;;;;4881839;29;20084;-67
2023/08/09 04:22:26;;;;;;;6.25;2.00;;;13.20;99.90;;;;;;4881548;29;20056;-67
2023/08/09 04:24:52;;;;;;;4.43;1.77;;;;;;;;;;4881408;29;20048;-67
2023/08/09 04:27:18;;;;;;;3.65;1.80;;;;;;;;;;4881124;29;20059;-67
2023/08/09 04:29:45;;;;;;;3.35;1.60;;;;;;;;;;4881285;29;20080;-67
2023/08/09 04:32:12;;;;;;;5.05;2.25;;;13.30;99.90;;;;;;4897915;29;20048;-67
2023/08/09 04:34:39;;;;;;;5.47;1.85;;;;;;;;;;4898054;29;20507;-67
2023/08/09 04:37:05;;;;;;;4.32;1.80;;;;;;;;;;4865404;29;20048;-66
2023/08/09 04:39:31;;;;;;;2.28;1.83;;;;;;;;;;4880946;29;20048;-67
2023/08/09 04:41:57;;;;;;;2.78;1.65;;;;;;;;;;4897422;29;20051;-67
2023/08/09 04:44:23;;;;;;;2.92;1.83;;;;;;;;;;4881257;29;20040;-67
2023/08/09 04:46:49;;;;;;;3.85;1.80;;;;;;;;;;4880384;29;20044;-67
2023/08/09 04:49:15;;;;;;;4.47;1.85;;;13.40;99.90;;;;;;4897697;29;20040;-67
2023/08/09 04:51:42;;;;;;;6.75;1.77;;;;;;;;;;4880556;29;20096;-66
2023/08/09 04:54:08;;;;;;;4.07;2.28;;;13.30;99.90;;;;;;4897613;29;20048;-67
2023/08/09 04:56:34;;;;;;;3.38;1.83;;;13.60;99.90;;;;;;4897241;29;20059;-67
2023/08/09 04:59:00;;;;;;;3.50;2.03;;;;;;;;;;4880699;29;20048;-67
2023/08/09 05:01:25;;;;;;;4.88;1.92;;;13.60;99.90;;;;;;4880528;29;20093;-67
2023/08/09 05:03:51;;;;;;;2.28;1.70;;;13.80;99.90;;;;;;4897310;29;20196;-67
2023/08/09 05:06:16;;;;;;;5.88;2.10;;;13.60;99.90;;;;;;4880148;29;20060;-67
2023/08/09 05:08:44;;;;;;;2.60;1.70;;;;;;;;;;4897210;29;20052;-67
2023/08/09 05:11:10;;;;;;;9.60;2.35;;;;;;;;;;4880714;29;20067;-67
2023/08/09 05:13:35;;;;;;;4.95;2.10;;;13.90;99.90;;;;;;4897242;29;20041;-67
2023/08/09 05:16:01;;;;;;;6.32;1.98;;;14.20;99.90;;;;;;4880176;29;20560;-67
2023/08/09 05:18:27;;;;;;;2.90;1.55;;;;;;;;;;4896765;29;20045;-67
2023/08/09 05:20:53;;;;;;;5.00;2.10;;;14.20;99.90;;;;;;4878378;29;20075;-67
2023/08/09 05:23:19;;;;;;;4.57;1.65;;;;;;;;;;4895645;29;20472;-67
2023/08/09 05:25:45;;;;;;;6.78;1.92;;;;;;;;;;4895141;29;20123;-67
2023/08/09 05:28:10;;;;;;;4.00;1.90;;;14.50;99.90;;;;;;4876277;29;20093;-67
2023/08/09 05:30:36;;;;;;;2.55;1.88;;;14.60;99.90;;;;;;4879102;29;20048;-67
2023/08/09 05:33:01;;;;;;;4.00;1.60;;;14.60;99.90;;;;;;4879555;29;20040;-67
2023/08/09 05:35:27;;;;;;;3.78;1.65;;;14.70;99.90;;;;;;4896690;29;20040;-67
2023/08/09 05:37:53;;;;;;;4.30;1.67;;;;;;;;;;4879647;29;20175;-67
2023/08/09 05:40:20;;;;;;;3.28;1.35;;;;;;;;;;4896430;29;20119;-67
2023/08/09 05:42:46;;;;;;;3.92;1.58;;;;;;;;;;4879810;29;20079;-67
2023/08/09 05:45:12;;;;;;;2.75;1.20;;;;;;;;;;4879739;29;20048;-67
2023/08/09 05:47:38;;;;;;;4.60;1.65;;;;;;;;;;4893959;29;20036;-66
2023/08/09 05:50:05;;;;;;;3.67;1.50;;;15.50;99.90;;;;;;4884768;29;20052;-67
2023/08/09 05:52:31;;;;;;;2.88;1.58;;;;;;;;;;4870523;29;20072;-67
2023/08/09 05:54:57;;;;;;;8.13;1.70;;;;;;;;;;4886722;29;20048;-67
2023/08/09 05:57:22;;;;;;;2.25;1.55;;;15.40;99.90;;;;;;4873185;29;20053;-66
2023/08/09 05:59:48;;;;;;;2.67;1.17;;;;;;;;;;4867083;29;20457;-67
2023/08/09 06:02:14;;;;;;;4.93;1.63;;;;;;;;;;4869113;29;20041;-66
2023/08/09 06:04:43;;;;;;;3.60;1.38;;;;;;;;;;4866488;29;20057;-67
2023/08/09 06:07:09;;;;;;;8.90;1.60;;;16.10;99.90;;;;;;4882061;29;20533;-67
2023/08/09 06:09:35;;;;;;;4.32;2.08;;;;;;;;;;4868167;29;20048;-67
2023/08/09 06:12:04;;;;;;;2.20;1.30;;;16.00;99.90;;;;;;4887225;29;20051;-67
2023/08/09 06:14:30;;;;;;;3.75;1.60;;;;;;;;;;4870581;29;20676;-67
2023/08/09 06:16:56;;;;;;;4.18;1.50;;;16.60;99.90;;;;;;4855944;29;20051;-67
2023/08/09 06:19:22;;;;;;;3.15;1.30;;;;;;;;;;4887381;29;20045;-66
2023/08/09 06:21:48;;;;;;;3.10;1.35;;;16.70;99.90;;;;;;4893455;29;20048;-67
2023/08/09 06:24:13;;;;;;;2.85;1.10;;;16.70;99.90;;;;;;4891473;29;20043;-67
2023/08/09 06:26:40;;;;;;;6.47;1.60;;;;;;;;;;4891156;29;20049;-67
2023/08/09 06:29:06;;;;;;;2.90;1.38;;;;;;;;;;4896601;29;20115;-68
2023/08/09 06:31:32;;;;;;;5.90;1.50;;;;;;;;;;4899275;29;20051;-68
2023/08/09 06:33:58;;;;;;;4.05;1.30;;;;;;;;;;4899946;29;20045;-69
2023/08/09 06:36:24;;;;;;;5.13;1.30;;;;;;;;;;4867710;29;20048;-68
2023/08/09 06:38:50;;;;;;;2.67;1.20;;;17.40;99.90;;;;;;4900038;29;20041;-69
2023/08/09 06:41:15;;;;;;;5.00;1.23;;;17.30;99.90;;;;;;4883147;29;20523;-68
2023/08/09 06:43:41;;;;;;;3.58;1.73;;;17.50;99.90;;;;;;4899801;29;20513;-68
2023/08/09 06:46:07;;;;;;;3.50;1.30;;;;;;;;;;4899958;29;20047;-68
2023/08/09 06:48:33;;;;;;;8.80;1.77;;;;;;;;;;4883081;29;20139;-68
2023/08/09 06:51:00;;;;;;;5.40;1.73;;;17.90;99.90;;;;;;4882468;29;20052;-67
2023/08/09 06:53:26;;;;;;;36.30;2.88;;;17.80;99.90;;;;;;4898230;29;20098;-69
2023/08/09 06:55:52;;;;;;;8.13;1.10;;;18.10;99.90;;;;;;4898431;29;20036;-68
2023/08/09 06:58:19;;;;;;;4.60;1.50;;;18.20;99.90;;;;;;4899637;29;20168;-69
2023/08/09 07:00:46;;;;;;;3.10;1.02;;;18.30;99.90;;;;;;4899079;29;20413;-69
2023/08/09 07:03:12;;;;;;;2.92;1.30;;;18.60;99.90;;;;;;4899429;29;20525;-69
2023/08/09 07:05:38;;;;;;;4.53;1.23;;;18.60;99.90;;;;;;4899661;29;20041;-70
2023/08/09 07:08:04;;;;;;;3.75;1.33;;;18.60;99.90;;;;;;4882910;29;20036;-70
2023/08/09 07:10:30;;;;;;;2.92;1.00;;;18.70;99.90;;;;;;4882953;29;20041;-70
2023/08/09 07:12:56;;;;;;;4.43;1.17;;;18.80;99.90;;;;;;4882669;29;20051;-70
2023/08/09 07:15:22;;;;;;;3.53;1.00;;;18.90;99.90;;;;;;4879542;29;20516;-70
2023/08/09 07:17:47;;;;;;;4.95;1.48;;;19.20;99.90;;;;;;4876545;29;20524;-69
2023/08/09 07:20:14;;;;;;;3.60;1.15;;;19.20;99.90;;;;;;4881775;29;20044;-70
2023/08/09 07:22:44;;;;;;;6.95;1.13;;;19.30;99.90;;;;;;4870307;29;20131;-70
2023/08/09 07:25:11;;;;;;;4.40;1.08;;;19.00;99.90;;;;;;4863521;29;20080;-68
2023/08/09 07:27:42;;;;;;;4.88;1.20;;;19.20;99.90;;;;;;4879991;29;20079;-69
2023/08/09 07:30:09;;;;;;;5.75;1.30;;;19.30;99.90;;;;;;4863413;29;20517;-69
2023/08/09 07:32:34;;;;;;;1.65;0.70;;;19.30;99.90;;;;;;4879965;29;20116;-69
2023/08/09 07:35:03;;;;;;;2.45;0.93;;;19.50;99.90;;;;;;4893345;29;20119;-69
2023/08/09 07:37:30;;;;;;;3.60;0.90;;;19.50;99.90;;;;;;4881951;29;20040;-69
2023/08/09 07:39:55;;;;;;;5.43;1.23;;;19.90;99.90;;;;;;4881938;29;20080;-69
2023/08/09 07:42:21;;;;;;;6.00;1.17;;;19.80;99.90;;;;;;4882048;29;20098;-70
2023/08/09 07:44:46;;;;;;;3.97;1.10;;;19.90;99.90;;;;;;4882285;29;20568;-69
2023/08/09 07:47:12;;;;;;;3.35;1.00;;;20.30;99.90;;;;;;4882035;29;20051;-68
2023/08/09 07:49:38;;;;;;;4.82;1.10;;;20.10;99.90;;;;;;4881914;29;20052;-70
2023/08/09 07:52:03;;;;;;;7.82;1.33;;;19.90;99.90;;;;;;4881340;29;20496;-70
2023/08/09 07:54:29;;;;;;;1.55;0.95;;;19.70;99.90;;;;;;4881851;29;20048;-70
2023/08/09 07:56:55;;;;;;;1.90;0.98;;;20.30;99.90;;;;;;4898729;29;20174;-70
2023/08/09 07:59:20;;;;;;;3.50;1.00;;;20.10;99.90;;;;;;4881675;29;20045;-70
2023/08/09 08:01:46;;;;;;;2.38;0.98;;;20.90;99.90;;;;;;4866381;29;20070;-70
2023/08/09 08:04:11;;;;;;;5.45;1.15;;;20.40;99.90;;;;;;4881592;29;20105;-70
2023/08/09 08:06:38;;;;;;;3.63;0.88;;;20.40;99.90;;;;;;4881523;29;20480;-70
2023/08/09 08:09:04;;;;;;;1.80;1.00;;;20.60;99.90;;;;;;4898587;29;20445;-69
2023/08/09 08:11:30;;;;;;;6.75;1.13;;;20.60;99.90;;;;;;4868167;29;20116;-70
2023/08/09 08:13:56;;;;;;;3.05;1.30;;;20.70;99.90;;;;;;4847395;29;20037;-70
2023/08/09 08:16:23;;;;;;;2.65;1.33;;;20.70;99.90;;;;;;4862885;29;20032;-70
2023/08/09 08:18:49;;;;;;;4.78;1.05;;;20.50;99.90;;;;;;4862818;29;20048;-71
2023/08/09 08:21:14;;;;;;;2.90;0.98;;;20.70;99.90;;;;;;4862629;29;20444;-71
2023/08/09 08:23:40;;;;;;;3.17;1.10;;;20.90;99.90;;;;;;4879236;29;20528;-70
2023/08/09 08:26:06;;;;;;;2.45;0.70;;;20.50;99.90;;;;;;4862487;29;20132;-70
2023/08/09 08:28:31;;;;;;;3.88;0.90;;;20.70;99.90;;;;;;4862540;29;20047;-71
2023/08/09 08:30:59;;;;;;;5.30;1.20;;;20.80;99.90;;;;;;4862451;29;20553;-71
2023/08/09 08:33:26;;;;;;;3.13;0.80;;;21.00;99.90;;;;;;4878956;29;20405;-71
2023/08/09 08:35:51;;;;;;;2.72;1.00;;;20.90;99.90;;;;;;4862772;29;20041;-72
2023/08/09 08:38:17;;;;;;;5.18;1.20;;;20.90;99.90;;;;;;4847052;29;20048;-72
2023/08/09 08:40:43;;;;;;;1.92;1.00;;;20.90;99.90;;;;;;4878465;29;20047;-71
2023/08/09 08:43:09;;;;;;;1.70;0.95;;;21.10;99.90;;;;;;4878846;29;20048;-70
2023/08/09 08:45:39;;;;;;;1.58;0.60;;;20.80;99.90;;;;;;4862339;29;20041;-71
2023/08/09 08:48:10;;;;;;;2.45;0.88;;;21.20;99.90;;;;;;4862140;29;20584;-70
2023/08/09 08:50:38;;;;;;;1.95;1.02;;;21.10;99.90;;;;;;4862061;29;20072;-70
2023/08/09 08:53:05;;;;;;;3.30;0.88;;;21.20;99.90;;;;;;4862208;29;20422;-70
2023/08/09 08:55:31;;;;;;;5.63;0.98;;;21.20;99.90;;;;;;4876935;29;20036;-70
2023/08/09 08:57:57;;;;;;;2.92;0.90;;;21.10;99.90;;;;;;4897029;29;20036;-71
2023/08/09 09:00:23;;;;;;;1.75;0.60;;;21.30;99.90;;;;;;4879999;29;20405;-70
2023/08/09 09:02:49;;;;;;;3.83;0.90;;;21.50;99.90;;;;;;4880437;29;20048;-71
2023/08/09 09:05:18;;;;;;;3.72;1.00;;;21.50;99.90;;;;;;4880160;29;20041;-71
2023/08/09 09:07:46;;;;;;;3.10;0.90;;;21.40;99.90;;;;;;4879950;29;20076;-70
2023/08/09 09:10:13;;;;;;;1.40;0.80;;;21.70;99.90;;;;;;4864647;29;20048;-71
2023/08/09 09:12:39;;;;;;;2.83;0.98;;;21.90;99.90;;;;;;4879922;29;20520;-71
2023/08/09 09:15:06;;;;;;;3.75;1.00;;;21.30;99.90;;;;;;4880124;29;20052;-71
2023/08/09 09:17:41;;;;;;;1.90;0.63;;;21.40;99.90;;;;;;4879648;29;20048;-71
2023/08/09 09:20:29;;;;;;;4.78;0.95;;;21.70;99.90;;;;;;4880224;29;20131;-71
2023/08/09 09:22:56;;;;;;;4.78;1.30;;;21.70;99.90;;;;;;4880127;29;20499;-71
2023/08/09 09:25:22;;;;;;;3.55;1.00;;;21.80;99.90;;;;;;4879490;29;20535;-70
2023/08/09 09:27:52;;;;;;;2.08;0.63;;;21.80;99.90;;;;;;4879937;29;20045;-71
2023/08/09 09:30:24;;;;;;;1.83;0.85;;;21.80;99.90;;;;;;4879504;29;20041;-71
2023/08/09 09:33:03;;;;;;;2.25;0.98;;;21.50;99.90;;;;;;4894757;29;20079;-71
2023/08/09 09:35:31;;;;;;;2.80;0.90;;;21.70;99.90;;;;;;4878130;29;20052;-72
2023/08/09 09:38:02;;;;;;;1.63;0.90;;;21.90;99.90;;;;;;4879698;29;20397;-69
2023/08/09 09:40:35;;;;;;;1.27;0.82;;;22.30;99.90;;;;;;4879767;29;20128;-68
2023/08/09 09:43:04;;;;;;;3.03;0.95;;;22.20;99.90;;;;;;4879675;29;20128;-70
2023/08/09 09:45:30;;;;;;;4.18;0.60;;;21.90;99.90;;;;;;4879919;29;20052;-70
2023/08/09 09:47:58;;;;;;;3.20;1.10;;;21.70;99.90;;;;;;4879619;29;20076;-68
2023/08/09 09:50:30;;;;;;;2.65;1.27;;;21.60;99.90;;;;;;4879467;29;20060;-70
2023/08/09 09:52:56;;;;;;;2.50;1.00;;;21.70;99.90;;;;;;4880047;29;20079;-70
2023/08/09 09:55:26;;;;;;;2.03;1.13;;;21.70;99.90;;;;;;4879457;29;20320;-70
2023/08/09 09:57:58;;;;;;;3.17;1.58;;;21.60;99.90;;;;;;4861222;29;20072;-70
2023/08/09 10:00:27;;;;;;;1.92;0.90;;;21.40;99.90;;;;;;4869823;29;20049;-69
2023/08/09 10:02:54;;;;;;;4.63;0.90;;;21.70;99.90;;;;;;4881527;29;20101;-70
2023/08/09 10:05:24;;;;;;;3.60;0.93;;;22.10;99.90;;;;;;4875532;29;20045;-69
2023/08/09 10:07:50;;;;;;;3.55;1.13;;;22.40;99.90;;;;;;4875983;29;20049;-70
2023/08/09 10:10:17;;;;;;;2.05;0.85;;;22.10;99.90;;;;;;4892947;29;20539;-69
2023/08/09 10:12:52;;;;;;;4.15;1.10;;;22.00;99.90;;;;;;4864601;29;20092;-68
2023/08/09 10:15:23;;;;;;;2.42;0.95;;;21.70;99.90;;;;;;4861156;29;20052;-68
2023/08/09 10:17:52;;;;;;;3.47;0.80;;;21.70;99.90;;;;;;4876223;29;20037;-71
2023/08/09 10:20:20;;;;;;;2.35;0.80;;;22.00;99.90;;;;;;4878085;29;20047;-69
2023/08/09 10:22:47;;;;;;;1.55;0.90;;;22.10;99.90;;;;;;4878869;29;20115;-70
2023/08/09 10:25:13;;;;;;;1.33;0.80;;;22.30;99.90;;;;;;4879770;29;20127;-69
2023/08/09 10:27:53;;;;;;;2.35;0.85;;;22.30;99.90;;;;;;4879496;29;20044;-70
2023/08/09 10:30:25;;;;;;;5.10;0.93;;;22.50;99.90;;;;;;4886967;29;20113;-70
2023/08/09 10:32:55;;;;;;;2.63;1.05;;;22.00;99.90;;;;;;4860454;29;20095;-70
2023/08/09 10:35:58;;;;;;;1.67;0.95;;;21.90;99.90;;;;;;4875822;29;20045;-70
2023/08/09 10:38:32;;;;;;;1.27;0.70;;;22.10;99.90;;;;;;4876850;29;20038;-70
2023/08/09 10:41:06;;;;;;;1.75;0.80;;;22.40;99.90;;;;;;4860600;29;20053;-67
2023/08/09 10:43:34;;;;;;;1.63;1.00;;;22.70;99.90;;;;;;4860514;29;20517;-68
2023/08/09 10:46:25;;;;;;;3.35;0.80;;;22.50;99.90;;;;;;4860509;29;20045;-67
2023/08/09 10:48:52;;;;;;;2.42;0.90;;;22.10;99.90;;;;;;4861062;29;20492;-68
2023/08/09 10:51:23;;;;;;;2.90;1.00;;;22.10;99.90;;;;;;4845519;29;20159;-68
2023/08/09 10:53:59;;;;;;;2.08;0.90;;;22.20;99.90;;;;;;4860649;29;20041;-68
2023/08/09 10:56:29;;;;;;;1.63;0.82;;;22.80;99.90;;;;;;4860835;29;20081;-68
2023/08/09 10:58:55;;;;;;;3.95;1.00;;;22.20;99.90;;;;;;4860920;29;20493;-68
2023/08/09 11:01:25;;;;;;;2.90;0.73;;;22.40;99.90;;;;;;4860740;29;20085;-68
2023/08/09 11:03:53;;;;;;;1.85;1.33;;;22.50;99.90;;;;;;4862426;29;20036;-68
2023/08/09 11:06:35;;;;;;;3.63;1.00;;;23.20;99.90;;;;;;4863973;29;20045;-68
2023/08/09 11:09:24;;;;;;;2.30;1.02;;;23.10;99.90;;;;;;4864204;29;20048;-68
2023/08/09 11:11:51;;;;;;;3.72;1.20;;;23.10;99.90;;;;;;4880858;29;20044;-68
2023/08/09 11:14:18;;;;;;;3.53;1.15;;;23.40;99.90;;;;;;4864159;29;20048;-69
2023/08/09 11:16:45;;;;;;;2.03;0.98;;;23.40;99.90;;;;;;4863742;29;20101;-68
2023/08/09 11:19:12;;;;;;;4.07;1.00;;;23.20;99.90;;;;;;4863980;29;20042;-68
2023/08/09 11:21:44;;;;;;;2.47;1.52;;;23.00;99.90;;;;;;4863572;29;20128;-68
2023/08/09 11:24:10;;;;;;;3.20;1.17;;;22.90;99.90;;;;;;4863660;29;20101;-69
2023/08/09 11:26:39;;;;;;;2.70;1.10;;;23.10;99.90;;;;;;4863628;29;20056;-69
2023/08/09 11:29:06;;;;;;;2.25;0.93;;;23.40;99.90;;;;;;4863909;29;20051;-68
2023/08/09 11:31:42;;;;;;;4.30;1.20;;;23.70;99.90;;;;;;4863592;29;20041;-69
2023/08/09 11:34:09;;;;;;;3.55;1.38;;;23.70;99.90;;;;;;4863643;29;20037;-68
2023/08/09 11:36:35;;;;;;;2.97;1.00;;;23.50;99.90;;;;;;4863507;29;20064;-68
2023/08/09 11:39:01;;;;;;;1.67;1.13;;;23.30;99.90;;;;;;4863551;29;20064;-69
2023/08/09 11:41:38;;;;;;;3.83;1.65;;;22.90;99.90;;;;;;4863523;29;20072;-68
2023/08/09 11:44:04;;;;;;;3.75;1.60;;;22.50;99.90;;;;;;4863875;29;20255;-69
2023/08/09 11:46:31;;;;;;;5.43;1.83;;;22.10;99.90;;;;;;4863476;29;20525;-69
2023/08/09 11:49:02;;;;;;;2.83;2.53;;;22.20;99.90;;;;;;4863283;29;20652;-69
2023/08/09 11:51:32;;;;;;;5.30;4.10;;;22.10;99.90;;;;;;4863235;29;20092;-69
2023/08/09 11:53:57;;;;;;;5.65;3.20;;;22.60;99.90;;;;;;4863688;29;20472;-68
2023/08/09 11:56:24;;;;;;;3.03;1.27;;;22.80;99.90;;;;;;4863222;29;20136;-69
2023/08/09 11:58:54;;;;;;;3.88;1.35;;;23.10;99.90;;;;;;4847800;29;20037;-69
2023/08/09 12:01:23;;;;;;;1.58;1.13;;;23.20;99.90;;;;;;4863711;29;20036;-69
2023/08/09 12:03:53;;;;;;;7.78;1.15;;;23.30;99.90;;;;;;4863532;29;20049;-69
2023/08/09 12:06:36;;;;;;;3.47;1.27;;;22.80;99.90;;;;;;4862910;29;20048;-69
2023/08/09 12:09:35;;;;;;;2.67;1.10;;;22.50;99.90;;;;;;4879786;29;20517;-69
2023/08/09 12:12:07;;;;;;;5.63;1.50;;;22.20;99.90;;;;;;4862630;29;20089;-69
2023/08/09 12:14:38;;;;;;;2.28;1.10;;;22.60;99.90;;;;;;4862083;29;20044;-68
2023/08/09 12:17:05;;;;;;;2.65;1.15;;;22.80;99.90;;;;;;4862729;29;20148;-68
2023/08/09 12:19:31;;;;;;;5.45;1.30;;;22.50;99.90;;;;;;4862941;29;20569;-69
2023/08/09 12:21:58;;;;;;;4.45;1.48;;;22.60;99.90;;;;;;4862486;29;20128;-69
2023/08/09 12:24:24;;;;;;;4.18;1.40;;;23.10;99.90;;;;;;4862686;29;20593;-69
2023/08/09 12:26:50;;;;;;;2.92;1.02;;;23.00;99.90;;;;;;4862752;29;20119;-69
2023/08/09 12:29:16;;;;;;;3.88;1.10;;;23.10;99.90;;;;;;4862643;29;20083;-69
2023/08/09 12:31:42;;;;;;;3.10;1.02;;;23.10;99.90;;;;;;4862351;29;20265;-69
2023/08/09 12:34:10;;;;;;;3.03;0.93;;;23.40;99.90;;;;;;4847567;29;20117;-69
2023/08/09 12:36:35;;;;;;;2.08;0.95;;;23.50;99.90;;;;;;4862509;29;20044;-69
2023/08/09 12:39:01;;;;;;;8.63;1.73;;;23.40;99.90;;;;;;4862572;29;20044;-69
2023/08/09 12:41:28;;;;;;;4.93;1.30;;;23.30;99.90;;;;;;4862592;29;20049;-69
2023/08/09 12:43:53;;;;;;;8.07;1.48;;;23.30;99.90;;;;;;4862326;29;20045;-69
2023/08/09 12:46:19;;;;;;;6.13;1.25;;;23.40;99.90;;;;;;4862342;29;20505;-70
2023/08/09 12:48:46;;;;;;;1.42;0.90;;;23.30;99.90;;;;;;4862360;29;20133;-69
2023/08/09 12:51:13;;;;;;;10.68;1.20;;;23.50;99.90;;;;;;4862141;29;20056;-69
2023/08/09 12:53:39;;;;;;;2.72;1.13;;;23.60;99.90;;;;;;4862061;29;20048;-69
2023/08/09 12:56:05;;;;;;;4.70;1.52;;;23.70;99.90;;;;;;4862472;29;20397;-69
2023/08/09 12:58:33;;;;;;;5.32;1.33;;;;;;;;;;4879044;29;20056;-69
2023/08/09 13:00:59;;;;;;;4.72;1.33;;;23.80;99.90;;;;;;4862165;29;20056;-69
2023/08/09 13:03:25;;;;;;;2.13;0.85;;;23.60;99.90;;;;;;4861870;29;20101;-69
2023/08/09 13:05:51;;;;;;;6.80;1.35;;;23.50;99.90;;;;;;4861954;29;20037;-69
2023/08/09 13:08:16;;;;;;;4.30;1.50;;;23.60;99.90;;;;;;4878586;29;20056;-70
2023/08/09 13:10:42;;;;;;;5.78;1.30;;;23.30;99.90;;;;;;4861893;29;20052;-69